createdAt,value
2018-06-21T00:00:57.318Z,15.30
2018-06-21T00:03:28.042Z,15.20
2018-06-21T00:05:57.097Z,15.30
2018-06-21T00:08:26.866Z,15.20
2018-06-21T00:10:56.836Z,15.20
2018-06-21T00:13:27.069Z,15.20
2018-06-21T00:15:56.913Z,15.10
2018-06-21T00:18:26.993Z,15.10
2018-06-21T00:20:57.564Z,15.10
2018-06-21T00:23:27.862Z,15.00
2018-06-21T00:25:57.979Z,15.00
2018-06-21T00:28:29.388Z,14.90
2018-06-21T00:30:58.439Z,14.90
2018-06-21T00:33:30.883Z,14.90
2018-06-21T00:36:00.022Z,14.80
2018-06-21T00:38:30.771Z,14.80
2018-06-21T00:41:01.497Z,14.80
2018-06-21T00:43:31.101Z,14.80
2018-06-21T00:46:00.199Z,14.80
2018-06-21T00:48:30.031Z,14.70
2018-06-21T00:50:59.531Z,14.70
2018-06-21T00:53:32.124Z,14.70
2018-06-21T00:56:12.459Z,14.60
2018-06-21T00:58:43.898Z,14.60
2018-06-21T01:01:13.335Z,14.50
2018-06-21T01:03:43.003Z,14.50
2018-06-21T01:06:19.144Z,14.50
2018-06-21T01:08:51.388Z,14.40
2018-06-21T01:11:22.706Z,14.40
2018-06-21T01:13:52.398Z,14.40
2018-06-21T01:16:23.641Z,14.30
2018-06-21T01:18:53.189Z,14.30
2018-06-21T01:21:23.274Z,14.30
2018-06-21T01:23:54.510Z,14.30
2018-06-21T01:26:24.627Z,14.30
2018-06-21T01:28:54.699Z,14.20
2018-06-21T01:31:25.295Z,14.20
2018-06-21T01:33:54.559Z,14.10
2018-06-21T01:36:25.441Z,14.10
2018-06-21T01:38:54.573Z,14.10
2018-06-21T01:41:24.646Z,14.10
2018-06-21T01:43:55.486Z,14.00
2018-06-21T01:46:25.475Z,14.00
2018-06-21T01:48:55.813Z,14.00
2018-06-21T01:51:26.014Z,14.00
2018-06-21T01:53:56.075Z,14.00
2018-06-21T01:56:25.332Z,13.90
2018-06-21T01:58:54.682Z,13.90
2018-06-21T02:01:26.522Z,13.90
2018-06-21T02:03:56.465Z,13.90
2018-06-21T02:06:26.370Z,13.90
2018-06-21T02:08:55.436Z,13.90
2018-06-21T02:11:25.481Z,13.90
2018-06-21T02:13:55.633Z,13.80
2018-06-21T02:16:24.767Z,13.80
2018-06-21T02:18:53.885Z,13.80
2018-06-21T02:21:25.650Z,13.80
2018-06-21T02:23:56.521Z,13.70
2018-06-21T02:26:26.026Z,13.70
2018-06-21T02:28:55.956Z,13.70
2018-06-21T02:31:25.588Z,13.70
2018-06-21T02:33:55.188Z,13.60
2018-06-21T02:36:27.183Z,13.60
2018-06-21T02:38:57.111Z,13.60
2018-06-21T02:41:29.316Z,13.50
2018-06-21T02:43:59.415Z,13.50
2018-06-21T02:46:30.810Z,13.50
2018-06-21T02:49:00.417Z,13.50
2018-06-21T02:51:30.342Z,13.50
2018-06-21T02:53:59.863Z,13.50
2018-06-21T02:56:30.944Z,13.50
2018-06-21T02:58:59.975Z,13.50
2018-06-21T03:01:29.084Z,13.50
2018-06-21T03:04:07.082Z,13.40
2018-06-21T03:06:38.294Z,13.40
2018-06-21T03:09:10.560Z,13.40
2018-06-21T03:11:41.305Z,13.40
2018-06-21T03:14:12.580Z,13.40
2018-06-21T03:16:42.347Z,13.40
2018-06-21T03:19:13.838Z,13.40
2018-06-21T03:21:43.881Z,13.40
2018-06-21T03:24:14.874Z,13.40
2018-06-21T03:26:44.961Z,13.40
2018-06-21T03:29:16.848Z,13.40
2018-06-21T03:31:46.564Z,13.40
2018-06-21T03:34:15.636Z,13.40
2018-06-21T03:36:45.716Z,13.40
2018-06-21T03:39:17.237Z,13.40
2018-06-21T03:41:46.408Z,13.50
2018-06-21T03:44:16.485Z,13.50
2018-06-21T03:46:46.734Z,13.50
2018-06-21T03:49:20.126Z,13.60
2018-06-21T03:51:50.598Z,13.60
2018-06-21T03:54:20.634Z,13.70
2018-06-21T03:56:50.785Z,13.70
2018-06-21T03:59:19.829Z,13.80
2018-06-21T04:01:49.355Z,13.80
2018-06-21T04:04:18.293Z,13.90
2018-06-21T04:06:47.391Z,13.90
2018-06-21T04:09:18.547Z,14.00
2018-06-21T04:11:48.279Z,14.10
2018-06-21T04:14:18.809Z,14.10
2018-06-21T04:16:48.687Z,14.20
2018-06-21T04:19:17.803Z,14.30
2018-06-21T04:21:48.203Z,14.40
2018-06-21T04:24:18.249Z,14.50
2018-06-21T04:26:50.559Z,14.60
2018-06-21T04:29:21.730Z,14.70
2018-06-21T04:31:50.908Z,14.90
2018-06-21T04:34:20.625Z,15.00
2018-06-21T04:36:51.003Z,15.10
2018-06-21T04:39:21.322Z,15.20
2018-06-21T04:41:51.988Z,15.20
2018-06-21T04:44:21.371Z,15.40
2018-06-21T04:46:50.805Z,15.50
2018-06-21T04:49:22.962Z,15.50
2018-06-21T04:51:55.293Z,15.70
2018-06-21T04:54:29.518Z,15.80
2018-06-21T04:57:00.959Z,15.90
2018-06-21T04:59:36.045Z,16.10
2018-06-21T05:02:09.316Z,16.20
2018-06-21T05:04:42.961Z,16.30
2018-06-21T05:07:12.950Z,16.40
2018-06-21T05:09:43.299Z,16.60
2018-06-21T05:12:13.577Z,16.70
2018-06-21T05:14:43.925Z,16.90
2018-06-21T05:17:13.646Z,17.00
2018-06-21T05:19:43.731Z,17.20
2018-06-21T05:22:13.428Z,17.30
2018-06-21T05:24:44.288Z,17.50
2018-06-21T05:27:14.223Z,17.70
2018-06-21T05:29:44.163Z,17.90
2018-06-21T05:32:14.538Z,18.20
2018-06-21T05:34:44.461Z,18.50
2018-06-21T05:37:14.515Z,18.80
2018-06-21T05:39:44.521Z,19.10
2018-06-21T05:42:15.323Z,19.60
2018-06-21T05:44:45.666Z,19.90
2018-06-21T05:47:21.278Z,20.20
2018-06-21T05:49:51.198Z,20.40
2018-06-21T05:52:21.481Z,20.70
2018-06-21T05:54:51.357Z,21.20
2018-06-21T05:57:23.458Z,21.60
2018-06-21T05:59:53.220Z,21.80
2018-06-21T06:02:28.417Z,21.90
2018-06-21T06:05:00.565Z,22.10
2018-06-21T06:07:32.899Z,22.20
2018-06-21T06:10:05.652Z,22.90
2018-06-21T06:12:37.127Z,23.10
2018-06-21T06:15:09.571Z,23.60
2018-06-21T06:17:47.497Z,24.00
2018-06-21T06:20:31.543Z,24.20
2018-06-21T06:23:01.406Z,24.50
2018-06-21T06:25:31.566Z,24.30
2018-06-21T06:28:01.377Z,23.80
2018-06-21T06:30:33.392Z,23.70
2018-06-21T06:33:03.372Z,24.30
2018-06-21T06:35:33.206Z,25.10
2018-06-21T06:38:03.245Z,25.30
2018-06-21T06:40:44.238Z,25.40
2018-06-21T06:43:23.654Z,26.10
2018-06-21T06:45:53.212Z,26.60
2018-06-21T06:48:24.420Z,26.30
2018-06-21T06:51:00.075Z,26.00
2018-06-21T06:53:30.375Z,26.70
2018-06-21T06:56:01.316Z,27.30
2018-06-21T06:58:31.594Z,27.80
2018-06-21T07:01:03.388Z,28.40
2018-06-21T07:03:33.995Z,28.60
2018-06-21T07:06:11.701Z,28.70
2018-06-21T07:08:42.214Z,28.80
2018-06-21T07:11:14.843Z,28.60
2018-06-21T07:13:44.851Z,28.90
2018-06-21T07:16:14.588Z,29.00
2018-06-21T07:18:44.640Z,29.80
2018-06-21T07:21:14.589Z,29.80
2018-06-21T07:23:45.024Z,29.10
2018-06-21T07:26:16.441Z,29.80
2018-06-21T07:28:45.991Z,29.60
2018-06-21T07:31:16.289Z,29.00
2018-06-21T07:33:46.611Z,30.00
2018-06-21T07:36:16.336Z,30.80
2018-06-21T07:38:46.284Z,31.40
2018-06-21T07:41:16.210Z,31.70
2018-06-21T07:43:45.674Z,31.80
2018-06-21T07:46:17.540Z,31.80
2018-06-21T07:48:47.169Z,31.30
2018-06-21T07:51:17.599Z,31.70
2018-06-21T07:53:48.539Z,32.00
2018-06-21T07:56:18.904Z,32.30
2018-06-21T07:58:48.723Z,32.00
2018-06-21T08:01:21.656Z,32.10
2018-06-21T08:03:52.263Z,31.70
2018-06-21T08:06:24.342Z,31.80
2018-06-21T08:08:54.120Z,31.40
2018-06-21T08:11:26.761Z,31.70
2018-06-21T08:14:00.785Z,31.50
2018-06-21T08:16:31.085Z,32.10
2018-06-21T08:19:19.628Z,32.30
2018-06-21T08:21:51.334Z,32.70
2018-06-21T08:24:25.330Z,31.50
2018-06-21T08:26:55.009Z,31.60
2018-06-21T08:29:34.129Z,31.90
2018-06-21T08:32:03.735Z,31.80
2018-06-21T08:34:37.496Z,32.10
2018-06-21T08:37:08.092Z,31.90
2018-06-21T08:39:46.017Z,31.80
2018-06-21T08:42:16.745Z,31.30
2018-06-21T08:44:52.424Z,31.20
2018-06-21T08:47:23.011Z,31.20
2018-06-21T08:49:58.988Z,31.00
2018-06-21T08:52:39.397Z,31.40
2018-06-21T08:55:13.093Z,31.10
2018-06-21T08:57:58.880Z,31.30
2018-06-21T09:00:39.218Z,32.20
2018-06-21T09:03:09.742Z,31.80
2018-06-21T09:05:45.495Z,32.10
2018-06-21T09:08:19.733Z,32.10
2018-06-21T09:10:53.885Z,31.40
2018-06-21T09:13:34.998Z,30.80
2018-06-21T09:16:05.685Z,30.00
2018-06-21T09:18:38.869Z,29.80
2018-06-21T09:21:09.706Z,29.50
2018-06-21T09:23:43.198Z,29.40
2018-06-21T09:26:13.769Z,30.00
2018-06-21T09:28:46.321Z,30.80
2018-06-21T09:31:17.868Z,31.60
2018-06-21T09:33:51.282Z,31.60
2018-06-21T09:36:23.826Z,31.70
2018-06-21T09:39:00.308Z,31.50
2018-06-21T09:41:36.381Z,31.30
2018-06-21T09:46:54.774Z,31.70
2018-06-21T09:49:34.918Z,31.90
2018-06-21T09:52:08.106Z,32.40
2018-06-21T09:54:44.422Z,31.80
2018-06-21T09:57:14.936Z,32.30
2018-06-21T09:59:47.502Z,32.40
2018-06-21T10:02:17.284Z,32.10
2018-06-21T10:04:47.420Z,31.90
2018-06-21T10:07:17.023Z,32.10
2018-06-21T10:09:49.868Z,32.40
2018-06-21T10:12:22.818Z,32.60
2018-06-21T10:14:52.674Z,32.80
2018-06-21T10:17:25.052Z,33.40
2018-06-21T10:20:14.512Z,34.30
2018-06-21T10:22:47.911Z,34.30
2018-06-21T10:25:28.266Z,34.40
2018-06-21T10:27:58.899Z,34.20
2018-06-21T10:30:32.922Z,33.70
2018-06-21T10:33:06.452Z,33.40
2018-06-21T10:35:45.293Z,33.00
2018-06-21T10:38:19.363Z,33.20
2018-06-21T10:41:12.854Z,33.50
2018-06-21T10:43:43.190Z,33.40
2018-06-21T10:46:14.268Z,33.90
2018-06-21T10:48:47.308Z,34.20
2018-06-21T10:51:26.153Z,34.10
2018-06-21T10:53:57.471Z,34.30
2018-06-21T10:56:28.370Z,35.00
2018-06-21T10:59:02.193Z,34.40
2018-06-21T11:01:35.325Z,34.10
2018-06-21T11:06:59.795Z,33.20
2018-06-21T11:09:28.618Z,31.50
2018-06-21T11:11:57.563Z,31.00
2018-06-21T11:14:26.291Z,30.30
2018-06-21T11:16:55.170Z,30.30
2018-06-21T11:19:24.116Z,29.90
2018-06-21T11:21:53.055Z,29.50
2018-06-21T11:24:22.000Z,29.20
2018-06-21T11:26:50.892Z,29.70
2018-06-21T11:29:19.761Z,30.40
2018-06-21T11:31:49.005Z,31.20
2018-06-21T11:34:17.830Z,31.70
2018-06-21T11:36:47.551Z,32.30
2018-06-21T11:39:16.567Z,33.10
2018-06-21T11:41:45.426Z,33.00
2018-06-21T11:44:15.196Z,32.70
2018-06-21T11:46:44.157Z,32.10
2018-06-21T11:49:12.978Z,32.40
2018-06-21T11:51:41.823Z,32.50
2018-06-21T11:54:10.622Z,32.40
2018-06-21T11:56:39.446Z,31.80
2018-06-21T11:59:08.837Z,31.10
2018-06-21T12:01:37.851Z,31.00
2018-06-21T12:04:07.090Z,31.20
2018-06-21T12:06:36.162Z,31.50
2018-06-21T12:09:07.937Z,31.50
2018-06-21T12:11:36.635Z,31.90
2018-06-21T12:14:05.580Z,31.50
2018-06-21T12:16:34.802Z,31.40
2018-06-21T12:19:03.760Z,31.40
2018-06-21T12:21:33.129Z,31.40
2018-06-21T12:24:01.976Z,31.30
2018-06-21T12:26:30.932Z,31.40
2018-06-21T12:28:59.826Z,31.40
2018-06-21T12:31:28.726Z,31.50
2018-06-21T12:33:57.728Z,31.60
2018-06-21T12:36:26.535Z,30.90
2018-06-21T12:38:55.355Z,31.00
2018-06-21T12:41:24.152Z,30.80
2018-06-21T12:43:52.973Z,31.00
2018-06-21T12:46:21.712Z,31.00
2018-06-21T12:48:50.723Z,31.20
2018-06-21T12:51:20.658Z,30.90
2018-06-21T12:53:49.791Z,31.00
2018-06-21T12:56:18.857Z,30.40
2018-06-21T12:58:47.946Z,30.50
2018-06-21T13:01:16.796Z,30.40
2018-06-21T13:03:45.996Z,30.40
2018-06-21T13:06:14.935Z,29.80
2018-06-21T13:08:54.730Z,29.40
2018-06-21T13:11:36.754Z,29.00
2018-06-21T13:14:16.773Z,28.80
2018-06-21T13:16:45.696Z,28.70
2018-06-21T13:19:14.754Z,28.90
2018-06-21T13:21:43.510Z,28.90
2018-06-21T13:24:12.679Z,28.90
2018-06-21T13:26:41.620Z,28.80
2018-06-21T13:29:11.473Z,29.00
2018-06-21T13:31:41.057Z,29.30
2018-06-21T13:34:10.285Z,29.70
2018-06-21T13:36:40.239Z,29.80
2018-06-21T13:39:09.525Z,29.90
2018-06-21T13:41:38.643Z,30.20
2018-06-21T13:44:08.127Z,30.00
2018-06-21T13:46:38.911Z,30.00
2018-06-21T13:49:07.694Z,29.80
2018-06-21T13:51:36.619Z,29.30
2018-06-21T13:54:05.781Z,29.20
2018-06-21T13:56:36.117Z,29.20
2018-06-21T13:59:05.217Z,28.90
2018-06-21T14:01:34.278Z,28.70
2018-06-21T14:04:03.519Z,28.60
2018-06-21T14:06:33.551Z,28.70
2018-06-21T14:09:03.160Z,28.70
2018-06-21T14:11:32.257Z,28.90
2018-06-21T14:14:01.498Z,29.20
2018-06-21T14:16:30.501Z,29.10
2018-06-21T14:19:01.831Z,29.10
2018-06-21T14:21:32.881Z,28.70
2018-06-21T14:24:03.012Z,28.20
2018-06-21T14:26:34.048Z,28.30
2018-06-21T14:29:06.392Z,28.30
2018-06-21T14:31:34.955Z,28.70
2018-06-21T14:34:03.943Z,28.60
2018-06-21T14:36:33.104Z,28.60
2018-06-21T14:39:08.846Z,28.70
2018-06-21T14:41:40.296Z,28.70
2018-06-21T14:44:10.389Z,28.60
2018-06-21T14:46:42.022Z,28.20
2018-06-21T14:49:13.240Z,28.30
2018-06-21T14:51:43.065Z,28.10
2018-06-21T14:54:12.264Z,28.10
2018-06-21T14:56:41.344Z,27.90
2018-06-21T14:59:14.501Z,28.00
2018-06-21T15:01:45.497Z,28.10
2018-06-21T15:04:15.215Z,28.10
2018-06-21T15:06:45.076Z,27.90
2018-06-21T15:09:18.755Z,27.70
2018-06-21T15:11:49.803Z,27.40
2018-06-21T15:14:19.715Z,27.10
2018-06-21T15:16:48.196Z,27.10
2018-06-21T15:19:17.351Z,27.10
2018-06-21T15:21:46.171Z,27.00
2018-06-21T15:24:14.766Z,26.70
2018-06-21T15:26:44.426Z,26.30
2018-06-21T15:29:12.944Z,26.00
2018-06-21T15:31:43.244Z,26.00
2018-06-21T15:34:11.764Z,25.90
2018-06-21T15:36:43.427Z,25.90
2018-06-21T15:39:21.687Z,25.70
2018-06-21T15:41:50.192Z,25.50
2018-06-21T15:44:23.595Z,25.50
2018-06-21T15:46:52.094Z,25.60
2018-06-21T15:49:20.664Z,25.70
2018-06-21T15:51:49.184Z,25.80
2018-06-21T15:54:17.792Z,25.80
2018-06-21T15:56:46.500Z,25.80
2018-06-21T15:59:15.173Z,25.60
2018-06-21T16:01:45.600Z,25.60
2018-06-21T16:04:14.152Z,25.50
2018-06-21T16:06:42.622Z,25.50
2018-06-21T16:09:11.174Z,25.70
2018-06-21T16:11:40.140Z,25.70
2018-06-21T16:14:08.918Z,25.70
2018-06-21T16:16:37.487Z,25.90
2018-06-21T16:19:07.959Z,25.90
2018-06-21T16:21:37.503Z,25.60
2018-06-21T16:24:06.010Z,25.60
2018-06-21T16:26:34.807Z,25.70
2018-06-21T16:29:03.349Z,25.60
2018-06-21T16:31:31.881Z,25.60
2018-06-21T16:34:00.358Z,25.50
2018-06-21T16:36:28.923Z,25.40
2018-06-21T16:38:58.673Z,25.30
2018-06-21T16:41:27.587Z,25.00
2018-06-21T16:43:56.012Z,25.00
2018-06-21T16:46:25.131Z,24.90
2018-06-21T16:48:53.679Z,25.00
2018-06-21T16:51:23.496Z,25.10
2018-06-21T16:53:51.993Z,25.20
2018-06-21T16:56:20.870Z,25.20
2018-06-21T16:58:49.395Z,25.10
2018-06-21T17:01:17.920Z,25.00
2018-06-21T17:03:46.685Z,24.90
2018-06-21T17:06:17.552Z,24.50
2018-06-21T17:08:46.028Z,24.10
2018-06-21T17:11:14.734Z,23.70
2018-06-21T17:13:43.291Z,23.70
2018-06-21T17:16:11.776Z,23.50
2018-06-21T17:18:40.863Z,23.40
2018-06-21T17:21:09.392Z,23.30
2018-06-21T17:23:37.835Z,23.30
2018-06-21T17:26:06.336Z,23.10
2018-06-21T17:28:36.904Z,22.80
2018-06-21T17:31:05.410Z,22.70
2018-06-21T17:33:33.870Z,22.50
2018-06-21T17:36:02.395Z,22.40
2018-06-21T17:38:30.933Z,22.30
2018-06-21T17:40:59.428Z,22.20
2018-06-21T17:43:28.140Z,22.00
2018-06-21T17:45:56.600Z,22.00
2018-06-21T17:48:25.162Z,21.90
2018-06-21T17:50:53.685Z,21.90
2018-06-21T17:53:22.199Z,21.80
2018-06-21T17:55:50.665Z,21.80
2018-06-21T17:58:19.129Z,21.90
2018-06-21T18:00:47.590Z,21.80
2018-06-21T18:03:16.100Z,21.70
2018-06-21T18:05:45.384Z,21.60
2018-06-21T18:08:13.927Z,21.60
2018-06-21T18:10:42.439Z,21.40
2018-06-21T18:13:10.994Z,21.30
2018-06-21T18:15:39.488Z,21.30
2018-06-21T18:18:07.997Z,21.30
2018-06-21T18:20:36.492Z,21.40
2018-06-21T18:23:04.986Z,21.30
2018-06-21T18:25:33.484Z,21.10
2018-06-21T18:28:02.385Z,21.00
2018-06-21T18:30:31.108Z,20.90
2018-06-21T18:32:59.611Z,20.80
2018-06-21T18:35:28.218Z,20.70
2018-06-21T18:37:56.742Z,20.70
2018-06-21T18:40:25.262Z,20.50
2018-06-21T18:42:53.752Z,20.40
2018-06-21T18:45:22.393Z,20.30
2018-06-21T18:47:50.880Z,20.10
2018-06-21T18:50:19.383Z,20.00
2018-06-21T18:52:48.187Z,20.00
2018-06-21T18:55:16.624Z,19.90
2018-06-21T18:57:45.101Z,19.80
2018-06-21T19:00:13.675Z,19.80
2018-06-21T19:02:42.158Z,19.80
2018-06-21T19:05:10.735Z,19.70
2018-06-21T19:07:42.040Z,19.70
2018-06-21T19:10:15.925Z,19.60
2018-06-21T19:12:44.431Z,19.50
2018-06-21T19:15:12.902Z,19.40
2018-06-21T19:17:41.863Z,19.30
2018-06-21T19:20:10.645Z,19.30
2018-06-21T19:22:39.416Z,19.20
2018-06-21T19:25:07.894Z,19.20
2018-06-21T19:27:36.400Z,19.10
2018-06-21T19:30:05.155Z,19.10
2018-06-21T19:32:33.678Z,19.00
2018-06-21T19:35:05.087Z,18.90
2018-06-21T19:37:33.582Z,18.90
2018-06-21T19:40:02.090Z,18.80
2018-06-21T19:42:30.681Z,18.70
2018-06-21T19:44:59.209Z,18.60
2018-06-21T19:47:27.956Z,18.60
2018-06-21T19:49:56.989Z,18.50
2018-06-21T19:52:25.828Z,18.50
2018-06-21T19:54:54.436Z,18.40
2018-06-21T19:57:23.017Z,18.30
2018-06-21T19:59:51.514Z,18.30
2018-06-21T20:02:20.120Z,18.20
2018-06-21T20:04:48.683Z,18.10
2018-06-21T20:07:17.218Z,18.10
2018-06-21T20:09:45.660Z,18.10
2018-06-21T20:12:14.172Z,18.10
2018-06-21T20:14:42.683Z,18.20
2018-06-21T20:17:11.151Z,18.20
2018-06-21T20:19:44.884Z,18.20
2018-06-21T20:22:13.354Z,18.20
2018-06-21T20:24:41.827Z,18.20
2018-06-21T20:27:10.322Z,18.10
2018-06-21T20:29:38.827Z,18.10
2018-06-21T20:32:07.392Z,18.10
2018-06-21T20:34:35.872Z,18.10
2018-06-21T20:37:07.771Z,18.10
2018-06-21T20:39:37.514Z,18.10
2018-06-21T20:42:05.992Z,18.10
2018-06-21T20:44:34.496Z,18.10
2018-06-21T20:47:02.956Z,18.10
2018-06-21T20:49:31.453Z,18.10
2018-06-21T20:51:59.911Z,18.00
2018-06-21T20:54:28.683Z,18.00
2018-06-21T20:56:57.215Z,18.00
2018-06-21T20:59:25.711Z,18.00
2018-06-21T21:01:54.388Z,17.90
2018-06-21T21:04:25.028Z,17.90
2018-06-21T21:06:53.528Z,17.90
2018-06-21T21:09:22.932Z,17.90
2018-06-21T21:11:51.507Z,17.90
2018-06-21T21:14:20.849Z,17.80
2018-06-21T21:16:49.790Z,17.80
2018-06-21T21:19:19.002Z,17.80
2018-06-21T21:21:48.570Z,17.80
2018-06-21T21:24:17.485Z,17.70
2018-06-21T21:26:47.477Z,17.60
2018-06-21T21:29:16.573Z,17.60
2018-06-21T21:31:45.738Z,17.50
2018-06-21T21:34:14.980Z,17.50
2018-06-21T21:36:44.513Z,17.50
2018-06-21T21:39:13.446Z,17.50
2018-06-21T21:41:42.560Z,17.50
2018-06-21T21:44:12.493Z,17.40
2018-06-21T21:46:41.754Z,17.40
2018-06-21T21:49:10.741Z,17.30
2018-06-21T21:51:40.182Z,17.20
2018-06-21T21:54:09.231Z,17.20
2018-06-21T21:56:38.153Z,17.00
2018-06-21T21:59:07.356Z,17.00
2018-06-21T22:01:36.495Z,16.70
2018-06-21T22:04:05.492Z,16.80
2018-06-21T22:06:35.428Z,16.80
2018-06-21T22:09:06.194Z,16.90
2018-06-21T22:11:34.813Z,16.90
2018-06-21T22:14:05.196Z,16.80
2018-06-21T22:16:36.905Z,16.80
2018-06-21T22:19:05.835Z,16.80
2018-06-21T22:21:34.944Z,16.90
2018-06-21T22:24:03.869Z,16.90
2018-06-21T22:26:33.195Z,16.90
2018-06-21T22:29:03.055Z,16.90
2018-06-21T22:31:32.292Z,16.80
2018-06-21T22:34:01.360Z,16.80
2018-06-21T22:36:30.381Z,16.70
2018-06-21T22:38:59.360Z,16.60
2018-06-21T22:41:28.725Z,16.60
2018-06-21T22:43:58.497Z,16.50
2018-06-21T22:46:27.483Z,16.40
2018-06-21T22:48:56.529Z,16.30
2018-06-21T22:51:25.602Z,16.20
2018-06-21T22:53:54.986Z,16.00
2018-06-21T22:56:24.131Z,15.90
2018-06-21T22:58:53.666Z,15.70
2018-06-21T23:01:22.654Z,15.60
2018-06-21T23:03:52.309Z,15.50
2018-06-21T23:06:21.323Z,15.40
2018-06-21T23:08:50.410Z,15.40
2018-06-21T23:11:19.491Z,15.30
2018-06-21T23:13:48.772Z,15.30
2018-06-21T23:16:17.978Z,15.30
2018-06-21T23:18:58.496Z,15.30
2018-06-21T23:21:27.514Z,15.20
2018-06-21T23:23:58.528Z,15.10
2018-06-21T23:26:27.547Z,15.00
2018-06-21T23:28:56.486Z,14.80
2018-06-21T23:31:25.461Z,14.70
2018-06-21T23:33:54.470Z,14.60
2018-06-21T23:36:23.365Z,14.50
2018-06-21T23:38:53.318Z,14.40
2018-06-21T23:41:22.288Z,14.40
2018-06-21T23:43:51.308Z,14.30
2018-06-21T23:46:20.847Z,14.20
2018-06-21T23:48:49.897Z,14.10
2018-06-21T23:51:19.210Z,14.00
2018-06-21T23:53:48.566Z,14.00
2018-06-21T23:56:18.429Z,13.90
2018-06-21T23:58:48.529Z,13.90
